createdAt,value
2022-12-18T00:02:07.366Z,12.77
2022-12-18T00:06:10.169Z,16.30
2022-12-18T00:10:15.284Z,11.95
2022-12-18T00:14:18.077Z,16.00
2022-12-18T00:18:20.844Z,14.68
2022-12-18T00:22:23.357Z,15.60
2022-12-18T00:26:37.137Z,14.00
2022-12-18T00:30:40.954Z,11.07
2022-12-18T00:34:44.060Z,9.32
2022-12-18T00:38:47.520Z,11.15
2022-12-18T00:42:59.260Z,10.25
2022-12-18T00:47:01.572Z,9.63
2022-12-18T00:51:04.244Z,9.38
2022-12-18T00:55:07.042Z,11.60
2022-12-18T00:59:09.945Z,10.45
2022-12-18T01:03:15.484Z,9.00
2022-12-18T01:11:22.569Z,9.80
2022-12-18T01:15:24.925Z,8.82
2022-12-18T01:19:27.305Z,7.35
2022-12-18T01:23:30.426Z,5.72
2022-12-18T01:27:34.738Z,5.53
2022-12-18T01:31:39.498Z,6.25
2022-12-18T01:35:43.742Z,4.68
2022-12-18T01:39:45.920Z,5.13
2022-12-18T01:43:59.310Z,5.20
2022-12-18T01:48:08.696Z,5.50
2022-12-18T01:52:10.863Z,4.85
2022-12-18T01:56:23.161Z,5.60
2022-12-18T02:00:29.065Z,4.72
2022-12-18T02:04:32.193Z,5.75
2022-12-18T02:08:47.510Z,5.87
2022-12-18T02:12:58.093Z,5.50
2022-12-18T02:17:48.397Z,5.95
2022-12-18T02:22:19.513Z,5.07
2022-12-18T02:26:35.805Z,4.70
2022-12-18T02:30:40.215Z,4.97
2022-12-18T02:34:47.324Z,5.38
2022-12-18T02:38:54.617Z,4.28
2022-12-18T02:43:13.811Z,4.65
2022-12-18T02:47:20.651Z,4.07
2022-12-18T02:51:35.344Z,5.32
2022-12-18T02:55:37.723Z,4.68
2022-12-18T02:59:57.204Z,5.20
2022-12-18T03:04:09.103Z,4.70
2022-12-18T03:08:32.698Z,5.38
2022-12-18T03:12:52.849Z,5.65
2022-12-18T03:17:02.048Z,5.55
2022-12-18T03:21:07.851Z,4.88
2022-12-18T03:25:15.309Z,4.85
2022-12-18T03:29:23.955Z,4.15
2022-12-18T03:33:39.479Z,4.40
2022-12-18T03:37:42.123Z,3.75
2022-12-18T03:41:46.613Z,4.22
2022-12-18T03:46:28.695Z,3.90
2022-12-18T03:50:43.104Z,3.47
2022-12-18T03:54:47.430Z,3.95
2022-12-18T03:58:54.475Z,3.80
2022-12-18T04:03:02.976Z,3.15
2022-12-18T04:07:12.117Z,3.08
2022-12-18T04:11:14.785Z,3.88
2022-12-18T04:15:17.342Z,3.80
2022-12-18T04:19:19.950Z,2.60
2022-12-18T04:23:25.236Z,3.58
2022-12-18T04:27:29.607Z,3.42
2022-12-18T04:31:35.113Z,4.13
2022-12-18T04:35:38.706Z,4.22
2022-12-18T04:39:40.853Z,4.30
2022-12-18T04:43:50.182Z,4.20
2022-12-18T04:47:52.285Z,4.30
2022-12-18T04:51:55.253Z,3.28
2022-12-18T04:56:13.758Z,4.22
2022-12-18T05:00:17.848Z,4.10
2022-12-18T05:04:20.300Z,4.18
2022-12-18T05:08:23.065Z,4.30
2022-12-18T05:12:25.516Z,3.63
2022-12-18T05:16:27.781Z,4.20
2022-12-18T05:20:30.039Z,4.03
2022-12-18T05:24:32.142Z,3.83
2022-12-18T05:28:36.435Z,3.90
2022-12-18T05:32:39.275Z,4.38
2022-12-18T05:36:41.526Z,3.63
2022-12-18T05:40:44.712Z,3.40
2022-12-18T05:44:46.911Z,3.20
2022-12-18T05:48:51.350Z,3.42
2022-12-18T05:52:53.505Z,2.95
2022-12-18T05:56:55.778Z,2.55
2022-12-18T06:00:58.333Z,3.00
2022-12-18T06:05:00.384Z,2.88
2022-12-18T06:09:02.510Z,2.70
2022-12-18T06:13:05.351Z,2.63
2022-12-18T06:17:07.760Z,2.90
2022-12-18T06:21:10.095Z,2.65
2022-12-18T06:25:12.976Z,3.00
2022-12-18T06:29:16.047Z,3.13
2022-12-18T06:33:18.203Z,3.80
2022-12-18T06:37:20.728Z,3.20
2022-12-18T06:41:23.272Z,2.60
2022-12-18T06:45:25.558Z,2.90
2022-12-18T06:49:30.560Z,3.15
2022-12-18T06:53:33.454Z,3.83
2022-12-18T06:57:35.601Z,3.70
2022-12-18T07:01:39.540Z,4.35
2022-12-18T07:05:42.923Z,4.53
2022-12-18T07:09:44.973Z,4.45
2022-12-18T07:13:47.730Z,4.50
2022-12-18T07:17:49.834Z,4.28
2022-12-18T07:21:52.641Z,3.88
2022-12-18T07:25:54.822Z,4.47
2022-12-18T07:29:57.073Z,3.75
2022-12-18T07:34:26.167Z,4.63
2022-12-18T07:38:29.532Z,3.10
2022-12-18T07:42:32.057Z,2.97
2022-12-18T07:46:34.139Z,3.22
2022-12-18T07:50:36.379Z,3.78
2022-12-18T07:54:39.661Z,3.38
2022-12-18T07:58:41.987Z,3.22
2022-12-18T08:02:44.307Z,2.97
2022-12-18T08:06:48.170Z,2.95
2022-12-18T08:10:50.685Z,2.95
2022-12-18T08:14:52.977Z,3.20
2022-12-18T08:18:55.734Z,2.85
2022-12-18T08:22:59.137Z,3.03
2022-12-18T08:31:24.609Z,28.27
2022-12-18T08:35:29.526Z,9.70
2022-12-18T08:39:33.857Z,5.93
2022-12-18T08:43:54.872Z,5.82
2022-12-18T08:47:57.167Z,4.05
2022-12-18T08:51:59.344Z,4.47
2022-12-18T08:56:01.499Z,3.55
2022-12-18T09:00:05.217Z,3.13
2022-12-18T09:04:07.961Z,3.77
2022-12-18T09:08:10.557Z,3.75
2022-12-18T09:12:12.796Z,3.50
2022-12-18T09:16:15.546Z,3.00
2022-12-18T09:20:18.015Z,2.90
2022-12-18T09:24:20.664Z,2.10
2022-12-18T09:28:22.747Z,17.48
2022-12-18T09:32:25.051Z,2.50
2022-12-18T09:36:27.817Z,2.67
2022-12-18T09:40:36.202Z,2.13
2022-12-18T09:44:45.639Z,1.70
2022-12-18T09:48:52.347Z,1.95
2022-12-18T09:52:57.865Z,2.05
2022-12-18T09:57:00.100Z,1.23
2022-12-18T10:01:11.893Z,1.42
2022-12-18T10:05:31.584Z,1.67
2022-12-18T10:09:38.085Z,1.67
2022-12-18T10:14:29.251Z,1.70
2022-12-18T10:19:19.442Z,1.27
2022-12-18T10:23:48.327Z,1.33
2022-12-18T10:27:56.532Z,1.60
2022-12-18T10:31:58.698Z,1.48
2022-12-18T10:36:01.341Z,1.75
2022-12-18T10:40:18.205Z,1.77
2022-12-18T10:44:25.448Z,1.60
2022-12-18T10:48:36.210Z,1.27
2022-12-18T10:52:45.088Z,1.40
2022-12-18T10:56:50.029Z,1.40
2022-12-18T11:01:13.544Z,1.25
2022-12-18T11:05:38.085Z,1.33
2022-12-18T11:09:41.498Z,1.75
2022-12-18T11:14:01.937Z,1.77
2022-12-18T11:23:24.686Z,1.30
2022-12-18T11:27:29.429Z,1.88
2022-12-18T11:31:34.540Z,2.00
2022-12-18T11:35:54.979Z,1.52
2022-12-18T11:40:02.355Z,1.30
2022-12-18T11:44:09.128Z,1.50
2022-12-18T11:48:22.739Z,1.38
2022-12-18T11:52:50.405Z,1.27
2022-12-18T11:57:15.444Z,1.38
2022-12-18T12:01:51.966Z,1.75
2022-12-18T12:06:15.689Z,1.25
2022-12-18T12:10:40.659Z,1.35
2022-12-18T12:15:37.223Z,1.45
2022-12-18T12:19:44.763Z,1.30
2022-12-18T12:23:56.251Z,1.83
2022-12-18T12:28:50.289Z,1.30
2022-12-18T12:33:03.980Z,1.30
2022-12-18T12:37:21.353Z,1.20
2022-12-18T12:41:46.134Z,1.23
2022-12-18T12:52:46.142Z,1.13
2022-12-18T12:57:07.486Z,1.33
2022-12-18T13:01:42.839Z,1.50
2022-12-18T13:05:55.899Z,1.70
2022-12-18T13:10:27.196Z,1.40
2022-12-18T13:14:35.733Z,1.40
2022-12-18T13:18:38.158Z,1.50
2022-12-18T13:22:49.504Z,1.40
2022-12-18T13:26:51.763Z,1.27
2022-12-18T13:30:58.522Z,1.38
2022-12-18T13:35:27.520Z,1.00
2022-12-18T13:39:35.860Z,1.20
2022-12-18T13:43:46.242Z,1.00
2022-12-18T13:47:49.071Z,1.23
2022-12-18T13:51:55.079Z,1.20
2022-12-18T13:55:58.107Z,1.25
2022-12-18T14:00:25.781Z,1.25
2022-12-18T14:04:30.634Z,1.20
2022-12-18T14:08:42.627Z,0.98
2022-12-18T14:13:01.140Z,1.00
2022-12-18T14:17:11.292Z,1.30
2022-12-18T14:21:35.550Z,1.65
2022-12-18T14:25:37.820Z,1.50
2022-12-18T14:29:45.267Z,1.15
2022-12-18T14:33:47.786Z,1.00
2022-12-18T14:37:49.874Z,1.90
2022-12-18T14:41:53.724Z,2.25
2022-12-18T14:45:57.360Z,1.30
2022-12-18T14:49:59.700Z,1.38
2022-12-18T14:54:16.152Z,0.90
2022-12-18T14:58:19.359Z,1.77
2022-12-18T15:02:27.988Z,1.40
2022-12-18T15:06:36.306Z,1.30
2022-12-18T15:10:48.834Z,1.50
2022-12-18T15:14:53.246Z,1.60
2022-12-18T15:18:58.122Z,1.65
2022-12-18T15:23:00.384Z,1.13
2022-12-18T15:27:02.668Z,1.60
2022-12-18T15:31:25.118Z,1.67
2022-12-18T15:35:27.313Z,1.52
2022-12-18T15:39:29.408Z,1.27
2022-12-18T15:43:37.985Z,1.67
2022-12-18T15:47:40.535Z,1.20
2022-12-18T15:51:43.007Z,1.60
2022-12-18T15:56:03.826Z,1.65
2022-12-18T16:00:07.139Z,1.55
2022-12-18T16:04:14.261Z,2.17
2022-12-18T16:08:17.478Z,1.67
2022-12-18T16:12:23.625Z,2.45
2022-12-18T16:16:26.045Z,3.30
2022-12-18T16:20:29.640Z,4.93
2022-12-18T16:24:34.589Z,3.78
2022-12-18T16:28:36.864Z,2.30
2022-12-18T16:32:39.484Z,1.92
2022-12-18T16:36:42.009Z,2.85
2022-12-18T16:41:04.194Z,2.38
2022-12-18T16:45:10.790Z,5.50
2022-12-18T16:49:14.555Z,3.03
2022-12-18T16:53:16.697Z,4.30
2022-12-18T16:57:21.607Z,9.63
2022-12-18T17:01:32.291Z,9.40
2022-12-18T17:05:34.530Z,12.75
2022-12-18T17:09:37.865Z,4.28
2022-12-18T17:13:40.483Z,2.90
2022-12-18T17:17:43.240Z,4.03
2022-12-18T17:21:52.072Z,4.22
2022-12-18T17:26:02.082Z,2.75
2022-12-18T17:30:05.446Z,2.67
2022-12-18T17:34:08.058Z,2.78
2022-12-18T17:38:10.579Z,2.40
2022-12-18T17:42:15.347Z,2.35
2022-12-18T17:46:18.036Z,2.78
2022-12-18T17:50:20.500Z,2.35
2022-12-18T17:54:22.707Z,2.25
2022-12-18T17:58:25.378Z,3.38
2022-12-18T18:02:27.758Z,3.20
2022-12-18T18:06:30.596Z,2.97
2022-12-18T18:10:38.748Z,3.10
2022-12-18T18:14:40.894Z,2.60
2022-12-18T18:18:43.292Z,3.15
2022-12-18T18:22:45.712Z,3.28
2022-12-18T18:26:48.027Z,3.00
2022-12-18T18:30:50.108Z,2.80
2022-12-18T18:34:52.570Z,3.20
2022-12-18T18:38:55.399Z,5.78
2022-12-18T18:42:58.902Z,5.20
2022-12-18T18:47:02.166Z,3.28
2022-12-18T18:51:09.267Z,2.83
2022-12-18T18:55:19.496Z,3.38
2022-12-18T18:59:31.933Z,4.35
2022-12-18T19:03:35.698Z,4.35
2022-12-18T19:07:37.897Z,5.18
2022-12-18T19:12:18.300Z,4.15
2022-12-18T19:16:21.433Z,4.03
2022-12-18T19:20:26.086Z,8.95
2022-12-18T19:24:29.041Z,5.07
2022-12-18T19:28:31.344Z,4.97
2022-12-18T19:32:34.320Z,5.53
2022-12-18T19:36:38.497Z,5.60
2022-12-18T19:40:41.792Z,4.93
2022-12-18T19:44:43.926Z,7.15
2022-12-18T19:48:47.782Z,8.73
2022-12-18T19:52:50.110Z,8.63
2022-12-18T19:56:53.988Z,6.40
2022-12-18T20:00:56.430Z,11.75
2022-12-18T20:04:59.979Z,8.47
2022-12-18T20:09:05.532Z,8.30
2022-12-18T20:13:07.849Z,9.95
2022-12-18T20:17:10.274Z,7.25
2022-12-18T20:21:14.175Z,7.20
2022-12-18T20:25:18.186Z,8.18
2022-12-18T20:29:20.522Z,8.05
2022-12-18T20:33:22.562Z,7.82
2022-12-18T20:37:24.832Z,7.15
2022-12-18T20:41:31.996Z,9.38
2022-12-18T20:45:40.762Z,8.20
2022-12-18T20:49:45.753Z,8.18
2022-12-18T20:53:49.026Z,6.13
2022-12-18T20:57:52.823Z,7.75
2022-12-18T21:01:55.678Z,10.27
2022-12-18T21:05:58.209Z,15.43
2022-12-18T21:10:00.333Z,12.48
2022-12-18T21:14:23.214Z,14.98
2022-12-18T21:18:25.361Z,12.35
2022-12-18T21:22:29.137Z,11.47
2022-12-18T21:26:32.091Z,12.25
2022-12-18T21:30:34.381Z,10.35
2022-12-18T21:34:37.244Z,12.63
2022-12-18T21:38:39.371Z,11.57
2022-12-18T21:43:00.167Z,13.23
2022-12-18T21:47:13.806Z,11.15
2022-12-18T21:51:24.573Z,10.20
2022-12-18T21:55:26.969Z,11.88
2022-12-18T21:59:30.727Z,11.93
2022-12-18T22:03:33.126Z,14.32
2022-12-18T22:07:35.310Z,16.50
2022-12-18T22:11:37.898Z,15.23
2022-12-18T22:15:40.061Z,14.88
2022-12-18T22:19:43.213Z,13.43
2022-12-18T22:23:53.258Z,13.27
2022-12-18T22:28:13.897Z,11.85
2022-12-18T22:32:22.240Z,12.77
2022-12-18T22:36:59.401Z,11.98
2022-12-18T22:41:01.526Z,8.98
2022-12-18T22:45:03.769Z,8.85
2022-12-18T22:49:06.621Z,10.48
2022-12-18T22:53:09.236Z,12.10
2022-12-18T22:57:11.480Z,15.15
2022-12-18T23:01:25.763Z,28.50
2022-12-18T23:05:29.770Z,11.30
2022-12-18T23:09:32.536Z,9.52
2022-12-18T23:13:34.951Z,6.95
2022-12-18T23:17:37.048Z,6.00
2022-12-18T23:21:39.478Z,6.57
2022-12-18T23:25:41.689Z,6.78
2022-12-18T23:29:43.909Z,10.07
2022-12-18T23:33:48.778Z,9.60
2022-12-18T23:38:00.127Z,7.85
2022-12-18T23:42:02.904Z,6.82
2022-12-18T23:46:19.603Z,7.53
2022-12-18T23:50:25.458Z,7.80
2022-12-18T23:54:33.283Z,9.73
2022-12-18T23:58:37.917Z,9.50
